createdAt,value
2019-02-28T00:00:17.663Z,0.00
2019-02-28T00:01:17.687Z,0.00
2019-02-28T00:02:21.191Z,0.00
2019-02-28T00:03:17.600Z,0.00
2019-02-28T00:04:17.589Z,0.00
2019-02-28T00:05:17.571Z,0.00
2019-02-28T00:06:17.624Z,0.00
2019-02-28T00:07:17.922Z,0.00
2019-02-28T00:08:17.565Z,0.00
2019-02-28T00:09:17.538Z,0.00
2019-02-28T00:10:17.544Z,0.00
2019-02-28T00:11:17.517Z,0.00
2019-02-28T00:12:17.530Z,0.00
2019-02-28T00:13:21.423Z,0.00
2019-02-28T00:14:17.482Z,0.00
2019-02-28T00:15:17.465Z,0.00
2019-02-28T00:16:17.457Z,0.00
2019-02-28T00:17:17.516Z,0.00
2019-02-28T00:18:17.520Z,0.00
2019-02-28T00:19:17.431Z,0.00
2019-02-28T00:20:17.418Z,0.00
2019-02-28T00:21:17.466Z,0.00
2019-02-28T00:22:17.401Z,0.00
2019-02-28T00:23:19.212Z,0.00
2019-02-28T00:24:17.494Z,0.00
2019-02-28T00:25:17.350Z,0.00
2019-02-28T00:26:17.399Z,0.00
2019-02-28T00:27:20.963Z,0.00
2019-02-28T00:28:17.463Z,0.00
2019-02-28T00:29:17.345Z,0.00
2019-02-28T00:30:17.394Z,0.00
2019-02-28T00:31:17.319Z,0.00
2019-02-28T00:32:17.309Z,0.00
2019-02-28T00:33:17.266Z,0.00
2019-02-28T00:34:17.295Z,0.00
2019-02-28T00:35:17.247Z,0.00
2019-02-28T00:36:19.298Z,0.00
2019-02-28T00:37:17.247Z,0.00
2019-02-28T00:38:17.210Z,0.00
2019-02-28T00:39:17.236Z,0.00
2019-02-28T00:40:17.201Z,0.00
2019-02-28T00:41:17.199Z,0.00
2019-02-28T00:42:17.678Z,0.00
2019-02-28T00:43:17.209Z,0.00
2019-02-28T00:44:17.179Z,0.00
2019-02-28T00:45:17.188Z,0.00
2019-02-28T00:46:17.245Z,0.00
2019-02-28T00:47:17.189Z,0.00
2019-02-28T00:48:18.234Z,0.00
2019-02-28T00:49:17.135Z,0.00
2019-02-28T00:50:17.096Z,0.00
2019-02-28T00:51:17.081Z,0.00
2019-02-28T00:52:17.070Z,0.00
2019-02-28T00:53:17.093Z,0.00
2019-02-28T00:54:17.092Z,0.00
2019-02-28T00:55:17.028Z,0.00
2019-02-28T00:56:17.812Z,0.00
2019-02-28T00:57:17.007Z,0.00
2019-02-28T00:58:17.033Z,0.00
2019-02-28T00:59:16.985Z,0.00
2019-02-28T01:00:17.001Z,0.00
2019-02-28T01:01:16.965Z,0.00
2019-02-28T01:02:17.659Z,0.00
2019-02-28T01:03:16.951Z,0.00
2019-02-28T01:04:16.947Z,0.00
2019-02-28T01:05:16.987Z,0.00
2019-02-28T01:06:16.905Z,0.00
2019-02-28T01:07:17.023Z,0.00
2019-02-28T01:08:19.107Z,0.00
2019-02-28T01:09:17.878Z,0.00
2019-02-28T01:10:16.957Z,0.00
2019-02-28T01:11:16.857Z,0.00
2019-02-28T01:12:19.346Z,0.00
2019-02-28T01:13:16.836Z,0.00
2019-02-28T01:14:16.836Z,0.00
2019-02-28T01:15:16.827Z,0.00
2019-02-28T01:16:19.323Z,0.00
2019-02-28T01:17:16.798Z,0.00
2019-02-28T01:18:16.795Z,0.00
2019-02-28T01:19:16.839Z,0.00
2019-02-28T01:20:16.868Z,0.00
2019-02-28T01:21:16.819Z,0.00
2019-02-28T01:22:16.742Z,0.00
2019-02-28T01:23:16.739Z,0.00
2019-02-28T01:24:16.712Z,0.00
2019-02-28T01:25:16.704Z,0.00
2019-02-28T01:26:16.720Z,0.00
2019-02-28T01:27:17.377Z,0.00
2019-02-28T01:28:16.681Z,0.00
2019-02-28T01:29:16.668Z,0.00
2019-02-28T01:30:16.715Z,0.00
2019-02-28T01:31:16.723Z,0.00
2019-02-28T01:32:16.656Z,0.00
2019-02-28T01:33:16.664Z,0.00
2019-02-28T01:34:16.601Z,0.00
2019-02-28T01:35:16.688Z,0.00
2019-02-28T01:36:16.641Z,0.00
2019-02-28T01:37:16.590Z,0.00
2019-02-28T01:38:16.599Z,0.00
2019-02-28T01:39:16.551Z,0.00
2019-02-28T01:40:16.574Z,0.00
2019-02-28T01:41:16.572Z,0.00
2019-02-28T01:42:19.970Z,0.00
2019-02-28T01:43:16.505Z,0.00
2019-02-28T01:44:16.512Z,0.00
2019-02-28T01:45:16.526Z,0.00
2019-02-28T01:46:17.208Z,0.00
2019-02-28T01:47:19.953Z,0.00
2019-02-28T01:48:16.455Z,0.00
2019-02-28T01:49:16.454Z,0.00
2019-02-28T01:50:16.459Z,0.00
2019-02-28T01:51:16.445Z,0.00
2019-02-28T01:52:16.472Z,0.00
2019-02-28T01:53:19.571Z,0.00
2019-02-28T01:54:17.464Z,0.00
2019-02-28T01:55:16.384Z,0.00
2019-02-28T01:56:16.372Z,0.00
2019-02-28T01:57:16.420Z,0.00
2019-02-28T01:58:17.384Z,0.00
2019-02-28T01:59:16.401Z,0.00
2019-02-28T02:00:16.348Z,0.00
2019-02-28T02:01:16.314Z,0.00
2019-02-28T02:02:16.303Z,0.00
2019-02-28T02:03:16.418Z,0.00
2019-02-28T02:04:16.283Z,0.00
2019-02-28T02:05:17.303Z,0.00
2019-02-28T02:06:16.275Z,0.00
2019-02-28T02:07:16.287Z,0.00
2019-02-28T02:08:16.307Z,0.00
2019-02-28T02:09:16.228Z,0.00
2019-02-28T02:10:17.605Z,0.00
2019-02-28T02:11:16.270Z,0.00
2019-02-28T02:12:16.192Z,0.00
2019-02-28T02:13:16.274Z,0.00
2019-02-28T02:14:16.179Z,0.00
2019-02-28T02:15:16.887Z,0.00
2019-02-28T02:16:16.149Z,0.00
2019-02-28T02:17:16.215Z,0.00
2019-02-28T02:18:16.141Z,0.00
2019-02-28T02:19:18.550Z,0.00
2019-02-28T02:20:16.103Z,0.00
2019-02-28T02:21:16.150Z,0.00
2019-02-28T02:22:16.174Z,0.00
2019-02-28T02:23:18.210Z,0.00
2019-02-28T02:24:16.183Z,0.00
2019-02-28T02:25:16.088Z,0.00
2019-02-28T02:26:16.073Z,0.00
2019-02-28T02:27:16.253Z,0.00
2019-02-28T02:28:16.091Z,0.00
2019-02-28T02:29:16.070Z,0.00
2019-02-28T02:30:16.326Z,0.00
2019-02-28T02:31:15.994Z,0.00
2019-02-28T02:32:15.995Z,0.00
2019-02-28T02:33:16.002Z,0.00
2019-02-28T02:34:15.993Z,0.00
2019-02-28T02:35:15.963Z,0.00
2019-02-28T02:36:17.520Z,0.00
2019-02-28T02:37:15.949Z,0.00
2019-02-28T02:38:15.917Z,0.00
2019-02-28T02:39:17.590Z,0.00
2019-02-28T02:40:15.952Z,0.00
2019-02-28T02:41:15.878Z,0.00
2019-02-28T02:42:15.916Z,0.00
2019-02-28T02:43:15.869Z,0.00
2019-02-28T02:44:15.869Z,0.00
2019-02-28T02:45:15.868Z,0.00
2019-02-28T02:46:20.185Z,0.00
2019-02-28T02:47:16.821Z,0.00
2019-02-28T02:48:15.836Z,0.00
2019-02-28T02:49:19.902Z,0.00
2019-02-28T02:50:15.825Z,0.00
2019-02-28T02:51:15.774Z,0.00
2019-02-28T02:52:15.776Z,0.00
2019-02-28T02:53:15.756Z,0.00
2019-02-28T02:54:19.694Z,0.00
2019-02-28T02:55:15.804Z,0.00
2019-02-28T02:56:15.738Z,0.00
2019-02-28T02:57:15.851Z,0.00
2019-02-28T02:58:15.693Z,0.00
2019-02-28T02:59:15.717Z,0.00
2019-02-28T03:00:15.778Z,0.00
2019-02-28T03:01:15.660Z,0.00
2019-02-28T03:02:15.671Z,0.00
2019-02-28T03:03:15.647Z,0.00
2019-02-28T03:04:21.447Z,0.00
2019-02-28T03:05:16.669Z,0.00
2019-02-28T03:06:15.627Z,0.00
2019-02-28T03:07:23.318Z,0.00
2019-02-28T03:08:16.594Z,0.00
2019-02-28T03:09:15.589Z,0.00
2019-02-28T03:10:17.290Z,0.00
2019-02-28T03:11:15.579Z,0.00
2019-02-28T03:12:15.572Z,0.00
2019-02-28T03:13:15.537Z,0.00
2019-02-28T03:14:17.315Z,0.00
2019-02-28T03:15:15.515Z,0.00
2019-02-28T03:16:15.587Z,0.00
2019-02-28T03:17:15.485Z,0.00
2019-02-28T03:18:20.576Z,0.00
2019-02-28T03:19:16.475Z,0.00
2019-02-28T03:20:15.461Z,0.00
2019-02-28T03:21:16.506Z,0.00
2019-02-28T03:22:15.518Z,0.00
2019-02-28T03:23:15.446Z,0.00
2019-02-28T03:24:16.429Z,0.00
2019-02-28T03:25:15.410Z,0.00
2019-02-28T03:26:15.453Z,0.00
2019-02-28T03:27:19.083Z,0.00
2019-02-28T03:28:15.371Z,0.00
2019-02-28T03:29:15.397Z,0.00
2019-02-28T03:30:26.044Z,0.00
2019-02-28T03:31:16.405Z,0.00
2019-02-28T03:32:15.400Z,0.00
2019-02-28T03:33:27.393Z,0.00
2019-02-28T03:34:16.369Z,0.00
2019-02-28T03:35:15.308Z,0.00
2019-02-28T03:36:16.711Z,0.00
2019-02-28T03:37:15.297Z,0.00
2019-02-28T03:38:15.319Z,0.00
2019-02-28T03:39:15.283Z,0.00
2019-02-28T03:40:15.252Z,0.00
2019-02-28T03:41:17.758Z,0.00
2019-02-28T03:42:15.233Z,0.00
2019-02-28T03:43:15.295Z,0.00
2019-02-28T03:44:19.803Z,0.00
2019-02-28T03:45:16.238Z,0.00
2019-02-28T03:46:15.197Z,0.00
2019-02-28T03:47:15.165Z,0.00
2019-02-28T03:48:15.178Z,0.00
2019-02-28T03:49:15.208Z,0.00
2019-02-28T03:50:15.170Z,0.00
2019-02-28T03:51:15.138Z,0.00
2019-02-28T03:52:15.127Z,0.00
2019-02-28T03:53:19.232Z,0.00
2019-02-28T03:54:16.212Z,0.00
2019-02-28T03:55:15.114Z,0.00
2019-02-28T03:56:16.029Z,0.00
2019-02-28T03:57:15.055Z,0.00
2019-02-28T03:58:15.078Z,0.00
2019-02-28T03:59:18.933Z,0.00
2019-02-28T04:00:16.092Z,0.00
2019-02-28T04:01:15.004Z,0.00
2019-02-28T04:02:20.801Z,0.00
2019-02-28T04:03:16.687Z,0.00
2019-02-28T04:04:14.969Z,0.00
2019-02-28T04:05:14.977Z,0.00
2019-02-28T04:06:14.950Z,0.00
2019-02-28T04:07:15.983Z,0.00
2019-02-28T04:08:14.989Z,0.00
2019-02-28T04:09:14.961Z,0.00
2019-02-28T04:10:16.787Z,0.00
2019-02-28T04:11:15.921Z,0.00
2019-02-28T04:12:14.937Z,0.00
2019-02-28T04:13:19.310Z,0.00
2019-02-28T04:14:15.986Z,0.00
2019-02-28T04:15:14.879Z,0.00
2019-02-28T04:16:14.918Z,0.00
2019-02-28T04:17:14.857Z,0.00
2019-02-28T04:18:14.830Z,0.00
2019-02-28T04:19:21.209Z,0.00
2019-02-28T04:20:15.888Z,0.00
2019-02-28T04:21:14.803Z,0.00
2019-02-28T04:22:14.851Z,0.00
2019-02-28T04:23:14.773Z,0.00
2019-02-28T04:24:14.768Z,0.00
2019-02-28T04:25:14.842Z,0.00
2019-02-28T04:26:14.829Z,0.00
2019-02-28T04:27:14.737Z,0.00
2019-02-28T04:28:18.718Z,0.00
2019-02-28T04:29:14.763Z,0.00
2019-02-28T04:30:14.698Z,0.00
2019-02-28T04:31:18.725Z,0.00
2019-02-28T04:32:15.681Z,0.00
2019-02-28T04:33:14.663Z,0.00
2019-02-28T04:34:14.711Z,0.00
2019-02-28T04:35:14.640Z,0.00
2019-02-28T04:36:14.690Z,0.00
2019-02-28T04:37:14.619Z,0.00
2019-02-28T04:38:14.611Z,0.00
2019-02-28T04:39:14.619Z,0.00
2019-02-28T04:40:14.627Z,0.00
2019-02-28T04:41:14.670Z,0.00
2019-02-28T04:42:14.565Z,0.00
2019-02-28T04:43:14.564Z,0.00
2019-02-28T04:44:15.364Z,0.00
2019-02-28T04:45:14.554Z,0.00
2019-02-28T04:46:15.376Z,0.00
2019-02-28T04:47:14.622Z,0.00
2019-02-28T04:48:14.692Z,0.00
2019-02-28T04:49:14.500Z,0.00
2019-02-28T04:50:14.538Z,0.00
2019-02-28T04:51:14.506Z,0.00
2019-02-28T04:52:14.453Z,0.00
2019-02-28T04:53:14.440Z,0.00
2019-02-28T04:54:14.500Z,0.00
2019-02-28T04:55:14.542Z,0.00
2019-02-28T04:56:14.453Z,0.00
2019-02-28T04:57:17.426Z,0.00
2019-02-28T04:58:15.503Z,0.00
2019-02-28T04:59:14.400Z,0.00
2019-02-28T05:00:14.379Z,0.00
2019-02-28T05:01:14.406Z,0.00
2019-02-28T05:02:19.616Z,0.00
2019-02-28T05:03:15.334Z,0.00
2019-02-28T05:04:14.349Z,0.00
2019-02-28T05:05:14.345Z,0.00
2019-02-28T05:06:14.315Z,0.00
2019-02-28T05:07:14.317Z,0.00
2019-02-28T05:08:14.281Z,0.00
2019-02-28T05:09:15.114Z,0.00
2019-02-28T05:10:14.290Z,0.00
2019-02-28T05:11:14.296Z,0.00
2019-02-28T05:12:14.403Z,0.00
2019-02-28T05:13:14.946Z,0.00
2019-02-28T05:14:14.208Z,0.00
2019-02-28T05:15:14.275Z,0.00
2019-02-28T05:16:14.224Z,0.00
2019-02-28T05:17:14.293Z,0.00
2019-02-28T05:18:14.174Z,0.00
2019-02-28T05:19:14.185Z,0.00
2019-02-28T05:20:14.150Z,0.00
2019-02-28T05:21:16.472Z,0.00
2019-02-28T05:22:15.184Z,0.00
2019-02-28T05:23:14.115Z,0.00
2019-02-28T05:24:14.132Z,0.00
2019-02-28T05:25:17.796Z,0.00
2019-02-28T05:26:14.083Z,0.00
2019-02-28T05:27:14.067Z,0.00
2019-02-28T05:28:14.129Z,0.00
2019-02-28T05:29:14.055Z,0.00
2019-02-28T05:30:17.987Z,0.00
2019-02-28T05:31:15.043Z,0.00
2019-02-28T05:32:14.080Z,0.00
2019-02-28T05:33:14.889Z,0.00
2019-02-28T05:34:15.963Z,0.00
2019-02-28T05:35:14.039Z,0.00
2019-02-28T05:36:14.011Z,0.00
2019-02-28T05:37:13.965Z,0.00
2019-02-28T05:38:14.071Z,0.00
2019-02-28T05:39:14.010Z,0.00
2019-02-28T05:40:13.941Z,0.00
2019-02-28T05:41:15.345Z,0.00
2019-02-28T05:42:13.967Z,0.00
2019-02-28T05:43:13.934Z,0.00
2019-02-28T05:44:13.899Z,0.00
2019-02-28T05:45:14.889Z,0.00
2019-02-28T05:46:13.891Z,0.00
2019-02-28T05:47:13.886Z,0.00
2019-02-28T05:48:13.887Z,0.00
2019-02-28T05:49:13.864Z,0.00
2019-02-28T05:50:16.598Z,0.00
2019-02-28T05:51:13.868Z,0.00
2019-02-28T05:52:13.805Z,0.00
2019-02-28T05:53:13.832Z,0.00
2019-02-28T05:54:16.931Z,0.00
2019-02-28T05:55:13.774Z,0.00
2019-02-28T05:56:13.777Z,0.00
2019-02-28T05:57:13.745Z,0.00
2019-02-28T05:58:17.573Z,0.00
2019-02-28T05:59:13.725Z,0.00
2019-02-28T06:00:13.803Z,0.00
2019-02-28T06:01:13.748Z,0.00
2019-02-28T06:02:13.703Z,0.00
2019-02-28T06:03:13.705Z,0.00
2019-02-28T06:04:13.679Z,0.00
2019-02-28T06:05:13.685Z,0.00
2019-02-28T06:06:13.661Z,0.00
2019-02-28T06:07:13.661Z,0.00
2019-02-28T06:08:13.672Z,0.00
2019-02-28T06:09:14.739Z,0.00
2019-02-28T06:10:13.704Z,5.62
2019-02-28T06:11:15.297Z,5.62
2019-02-28T06:12:13.591Z,5.62
2019-02-28T06:13:15.354Z,5.62
2019-02-28T06:14:13.590Z,5.62
2019-02-28T06:15:13.558Z,5.62
2019-02-28T06:16:13.557Z,11.25
2019-02-28T06:17:13.544Z,11.25
2019-02-28T06:18:13.545Z,11.25
2019-02-28T06:19:13.576Z,11.25
2019-02-28T06:20:16.523Z,11.25
2019-02-28T06:21:13.487Z,16.88
2019-02-28T06:22:13.481Z,16.88
2019-02-28T06:23:13.476Z,16.88
2019-02-28T06:24:13.595Z,16.88
2019-02-28T06:25:22.180Z,22.50
2019-02-28T06:26:14.455Z,22.50
2019-02-28T06:27:13.419Z,22.50
2019-02-28T06:28:13.413Z,28.12
2019-02-28T06:29:13.408Z,28.12
2019-02-28T06:30:13.431Z,33.75
2019-02-28T06:31:14.301Z,33.75
2019-02-28T06:32:13.738Z,33.75
2019-02-28T06:33:13.360Z,39.38
2019-02-28T06:34:13.436Z,39.38
2019-02-28T06:35:15.927Z,45.00
2019-02-28T06:36:13.901Z,45.00
2019-02-28T06:37:13.498Z,50.62
2019-02-28T06:38:16.231Z,50.62
2019-02-28T06:39:14.333Z,56.25
2019-02-28T06:40:13.368Z,56.25
2019-02-28T06:41:13.348Z,56.25
2019-02-28T06:42:13.251Z,61.88
2019-02-28T06:43:14.179Z,67.50
2019-02-28T06:44:13.277Z,67.50
2019-02-28T06:45:13.230Z,73.12
2019-02-28T06:46:13.246Z,78.75
2019-02-28T06:47:14.250Z,84.38
2019-02-28T06:48:13.211Z,84.38
2019-02-28T06:49:13.219Z,90.00
2019-02-28T06:50:13.793Z,90.00
2019-02-28T06:51:13.189Z,95.62
2019-02-28T06:52:13.164Z,101.25
2019-02-28T06:53:13.130Z,106.88
2019-02-28T06:54:13.163Z,112.50
2019-02-28T06:55:13.371Z,112.50
2019-02-28T06:56:13.172Z,118.12
2019-02-28T06:57:13.119Z,123.75
2019-02-28T06:58:13.076Z,123.75
2019-02-28T06:59:13.071Z,129.38
2019-02-28T07:00:14.231Z,140.62
2019-02-28T07:01:13.067Z,140.62
2019-02-28T07:02:13.072Z,146.25
2019-02-28T07:03:13.082Z,151.88
2019-02-28T07:04:14.536Z,151.88
2019-02-28T07:05:13.020Z,157.50
2019-02-28T07:06:13.022Z,163.12
2019-02-28T07:07:13.708Z,168.75
2019-02-28T07:08:13.102Z,180.00
2019-02-28T07:09:12.959Z,185.62
2019-02-28T07:10:13.395Z,191.25
2019-02-28T07:11:12.951Z,196.88
2019-02-28T07:12:13.329Z,202.50
2019-02-28T07:13:12.962Z,208.12
2019-02-28T07:14:13.767Z,213.75
2019-02-28T07:15:12.894Z,225.00
2019-02-28T07:16:12.902Z,230.62
2019-02-28T07:17:12.873Z,230.62
2019-02-28T07:18:12.883Z,236.25
2019-02-28T07:19:12.846Z,241.88
2019-02-28T07:20:12.831Z,247.50
2019-02-28T07:21:12.826Z,253.12
2019-02-28T07:22:19.249Z,264.38
2019-02-28T07:23:13.825Z,275.62
2019-02-28T07:24:13.001Z,275.62
2019-02-28T07:25:13.830Z,286.88
2019-02-28T07:26:12.783Z,298.12
2019-02-28T07:27:12.812Z,298.12
2019-02-28T07:28:12.799Z,309.38
2019-02-28T07:29:12.751Z,315.00
2019-02-28T07:30:17.286Z,320.62
2019-02-28T07:31:13.733Z,320.62
2019-02-28T07:32:12.785Z,326.25
2019-02-28T07:33:12.726Z,337.50
2019-02-28T07:34:12.720Z,343.12
2019-02-28T07:35:12.695Z,354.38
2019-02-28T07:36:12.658Z,360.00
2019-02-28T07:37:12.670Z,365.62
2019-02-28T07:38:12.743Z,376.88
2019-02-28T07:39:12.628Z,388.12
2019-02-28T07:40:16.018Z,382.50
2019-02-28T07:41:12.604Z,388.12
2019-02-28T07:42:12.633Z,393.75
2019-02-28T07:43:13.263Z,393.75
2019-02-28T07:44:12.599Z,393.75
2019-02-28T07:45:12.673Z,399.38
2019-02-28T07:46:12.582Z,405.00
2019-02-28T07:47:17.172Z,421.88
2019-02-28T07:48:12.530Z,427.50
2019-02-28T07:49:12.603Z,438.75
2019-02-28T07:50:12.513Z,444.38
2019-02-28T07:51:12.497Z,450.00
2019-02-28T07:52:12.508Z,455.62
2019-02-28T07:53:12.493Z,461.25
2019-02-28T07:54:15.837Z,466.88
2019-02-28T07:55:12.481Z,472.50
2019-02-28T07:56:12.449Z,483.75
2019-02-28T07:57:17.007Z,483.75
2019-02-28T07:58:13.502Z,489.38
2019-02-28T07:59:12.475Z,506.25
2019-02-28T08:00:16.828Z,517.50
2019-02-28T08:01:13.386Z,517.50
2019-02-28T08:02:12.509Z,523.12
2019-02-28T08:03:12.370Z,534.38
2019-02-28T08:04:12.440Z,556.88
2019-02-28T08:05:12.405Z,568.12
2019-02-28T08:06:12.346Z,573.75
2019-02-28T08:07:14.877Z,585.00
2019-02-28T08:08:13.272Z,607.50
2019-02-28T08:09:12.309Z,630.00
2019-02-28T08:10:12.814Z,641.25
2019-02-28T08:11:12.337Z,663.75
2019-02-28T08:12:12.313Z,703.12
2019-02-28T08:13:12.293Z,742.50
2019-02-28T08:14:12.948Z,776.25
2019-02-28T08:15:13.652Z,810.00
2019-02-28T08:16:12.250Z,849.38
2019-02-28T08:17:12.243Z,860.62
2019-02-28T08:18:12.211Z,883.12
2019-02-28T08:19:12.223Z,911.25
2019-02-28T08:20:12.200Z,933.75
2019-02-28T08:21:12.213Z,961.88
2019-02-28T08:22:12.160Z,973.12
2019-02-28T08:23:12.780Z,883.12
2019-02-28T08:24:12.160Z,703.12
2019-02-28T08:25:12.131Z,601.88
2019-02-28T08:26:15.534Z,568.12
2019-02-28T08:27:13.115Z,528.75
2019-02-28T08:28:12.093Z,523.12
2019-02-28T08:29:12.086Z,517.50
2019-02-28T08:30:12.146Z,511.88
2019-02-28T08:31:12.146Z,500.62
2019-02-28T08:32:12.094Z,500.62
2019-02-28T08:33:12.042Z,495.00
2019-02-28T08:34:12.347Z,489.38
2019-02-28T08:35:12.020Z,478.12
2019-02-28T08:36:12.719Z,472.50
2019-02-28T08:37:11.995Z,472.50
2019-02-28T08:38:11.998Z,472.50
2019-02-28T08:39:12.073Z,478.12
2019-02-28T08:40:12.554Z,489.38
2019-02-28T08:41:11.986Z,495.00
2019-02-28T08:42:12.017Z,506.25
2019-02-28T08:43:13.559Z,511.88
2019-02-28T08:44:12.018Z,528.75
2019-02-28T08:45:11.986Z,590.62
2019-02-28T08:46:13.724Z,585.00
2019-02-28T08:47:11.910Z,590.62
2019-02-28T08:48:12.768Z,613.12
2019-02-28T08:49:11.892Z,607.50
2019-02-28T08:50:11.866Z,613.12
2019-02-28T08:51:11.848Z,630.00
2019-02-28T08:52:12.290Z,646.88
2019-02-28T08:53:12.379Z,658.12
2019-02-28T08:54:11.818Z,742.50
2019-02-28T08:55:11.797Z,680.62
2019-02-28T08:56:14.038Z,742.50
2019-02-28T08:57:13.000Z,641.25
2019-02-28T08:58:11.815Z,568.12
2019-02-28T08:59:12.229Z,568.12
2019-02-28T09:00:11.751Z,573.75
2019-02-28T09:01:12.234Z,585.00
2019-02-28T09:02:14.544Z,590.62
2019-02-28T09:03:12.711Z,585.00
2019-02-28T09:04:11.737Z,585.00
2019-02-28T09:05:11.730Z,579.38
2019-02-28T09:06:11.713Z,579.38
2019-02-28T09:07:14.833Z,579.38
2019-02-28T09:08:14.551Z,579.38
2019-02-28T09:09:11.678Z,585.00
2019-02-28T09:10:12.670Z,590.62
2019-02-28T09:11:11.695Z,596.25
2019-02-28T09:12:11.677Z,607.50
2019-02-28T09:13:11.669Z,590.62
2019-02-28T09:14:14.691Z,579.38
2019-02-28T09:15:12.882Z,573.75
2019-02-28T09:16:11.605Z,573.75
2019-02-28T09:17:11.669Z,579.38
2019-02-28T09:18:12.439Z,596.25
2019-02-28T09:19:11.589Z,618.75
2019-02-28T09:20:11.562Z,658.12
2019-02-28T09:21:15.347Z,804.38
2019-02-28T09:22:11.515Z,945.00
2019-02-28T09:23:11.567Z,939.38
2019-02-28T09:24:12.525Z,1080.00
2019-02-28T09:25:22.907Z,1108.12
2019-02-28T09:26:16.340Z,1136.25
2019-02-28T09:27:12.265Z,1288.12
2019-02-28T09:28:13.147Z,1383.75
2019-02-28T09:29:11.433Z,1473.75
2019-02-28T09:30:11.415Z,1479.38
2019-02-28T09:31:11.412Z,1406.25
2019-02-28T09:32:13.618Z,1428.75
2019-02-28T09:33:11.420Z,1473.75
2019-02-28T09:34:11.367Z,1524.38
2019-02-28T09:35:14.436Z,1546.88
2019-02-28T09:36:11.346Z,1423.12
2019-02-28T09:37:11.357Z,1569.38
2019-02-28T09:38:13.586Z,1625.62
2019-02-28T09:39:12.257Z,1648.12
2019-02-28T09:40:11.340Z,1248.75
2019-02-28T09:41:11.304Z,1338.75
2019-02-28T09:42:14.757Z,1321.88
2019-02-28T09:43:11.275Z,1119.38
2019-02-28T09:44:11.265Z,978.75
2019-02-28T09:45:11.300Z,945.00
2019-02-28T09:46:12.424Z,984.38
2019-02-28T09:47:11.826Z,984.38
2019-02-28T09:48:11.241Z,905.62
2019-02-28T09:49:12.860Z,945.00
2019-02-28T09:50:11.270Z,1293.75
2019-02-28T09:51:11.189Z,1338.75
2019-02-28T09:52:11.176Z,1164.38
2019-02-28T09:53:15.563Z,1141.88
2019-02-28T09:54:11.153Z,1186.88
2019-02-28T09:55:11.139Z,1305.00
2019-02-28T09:56:11.184Z,1265.62
2019-02-28T09:57:11.113Z,1248.75
2019-02-28T09:58:11.103Z,1254.38
2019-02-28T09:59:11.096Z,1231.88
2019-02-28T10:00:11.840Z,1001.25
2019-02-28T10:01:11.331Z,995.62
2019-02-28T10:02:11.066Z,1136.25
2019-02-28T10:03:11.052Z,1535.62
2019-02-28T10:04:11.074Z,1653.75
2019-02-28T10:05:11.790Z,1698.75
2019-02-28T10:06:16.422Z,1710.00
2019-02-28T10:07:11.017Z,1445.62
2019-02-28T10:08:11.051Z,1687.50
2019-02-28T10:09:11.048Z,1659.38
2019-02-28T10:10:10.997Z,1265.62
2019-02-28T10:11:11.001Z,1164.38
2019-02-28T10:12:11.103Z,1226.25
2019-02-28T10:13:10.941Z,1383.75
2019-02-28T10:14:12.216Z,1130.62
2019-02-28T10:15:10.920Z,990.00
2019-02-28T10:16:13.610Z,1456.88
2019-02-28T10:17:11.907Z,1215.00
2019-02-28T10:18:10.902Z,1198.12
2019-02-28T10:19:13.459Z,1220.62
2019-02-28T10:20:10.878Z,1175.62
2019-02-28T10:21:10.883Z,1473.75
2019-02-28T10:22:12.884Z,1524.38
2019-02-28T10:23:10.904Z,1738.12
2019-02-28T10:24:10.937Z,1653.75
2019-02-28T10:25:10.954Z,1800.00
2019-02-28T10:26:10.815Z,1788.75
2019-02-28T10:27:26.742Z,1816.88
2019-02-28T10:28:10.779Z,1715.62
2019-02-28T10:29:10.781Z,1704.38
2019-02-28T10:30:15.514Z,1800.00
2019-02-28T10:31:11.752Z,1704.38
2019-02-28T10:32:10.748Z,1597.50
2019-02-28T10:33:17.347Z,1659.38
2019-02-28T10:34:10.755Z,1783.12
2019-02-28T10:35:10.700Z,1890.00
2019-02-28T10:36:13.020Z,1614.38
2019-02-28T10:37:10.686Z,1271.25
2019-02-28T10:38:10.710Z,1406.25
2019-02-28T10:39:10.655Z,1125.00
2019-02-28T10:40:10.681Z,1153.12
2019-02-28T10:41:10.643Z,1361.25
2019-02-28T10:42:10.640Z,1231.88
2019-02-28T10:43:12.186Z,1158.75
2019-02-28T10:44:11.468Z,1355.62
2019-02-28T10:45:10.633Z,1468.12
2019-02-28T10:46:13.317Z,1501.88
2019-02-28T10:47:11.572Z,1406.25
2019-02-28T10:48:10.581Z,1485.00
2019-02-28T10:49:39.948Z,1591.88
2019-02-28T10:50:10.545Z,1665.00
2019-02-28T10:51:13.914Z,1653.75
2019-02-28T10:52:10.542Z,1715.62
2019-02-28T10:53:10.524Z,1777.50
2019-02-28T10:54:14.551Z,1642.50
2019-02-28T10:55:10.497Z,1558.12
2019-02-28T10:56:10.505Z,1563.75
2019-02-28T10:57:10.473Z,1839.38
2019-02-28T10:58:12.429Z,1918.12
2019-02-28T10:59:11.452Z,1946.25
2019-02-28T11:00:10.456Z,1957.50
2019-02-28T11:01:10.736Z,1940.62
2019-02-28T11:02:13.480Z,1968.75
2019-02-28T11:03:11.404Z,1800.00
2019-02-28T11:04:10.990Z,1895.62
2019-02-28T11:05:10.373Z,1856.25
2019-02-28T11:06:10.375Z,1783.12
2019-02-28T11:07:26.386Z,1698.75
2019-02-28T11:08:12.848Z,1794.38
2019-02-28T11:09:10.349Z,1968.75
2019-02-28T11:10:10.325Z,1923.75
2019-02-28T11:11:10.526Z,1805.62
2019-02-28T11:12:10.308Z,1833.75
2019-02-28T11:13:10.425Z,1906.88
2019-02-28T11:14:10.304Z,1800.00
2019-02-28T11:15:13.733Z,1760.62
2019-02-28T11:16:10.296Z,1670.62
2019-02-28T11:17:13.719Z,1513.12
2019-02-28T11:18:10.311Z,1597.50
2019-02-28T11:19:18.643Z,1597.50
2019-02-28T11:20:10.212Z,1215.00
2019-02-28T11:21:10.205Z,1417.50
2019-02-28T11:22:10.190Z,1580.62
2019-02-28T11:23:14.365Z,1456.88
2019-02-28T11:24:10.202Z,1102.50
2019-02-28T11:25:10.161Z,1383.75
2019-02-28T11:26:10.457Z,1513.12
2019-02-28T11:27:10.419Z,1546.88
2019-02-28T11:28:10.127Z,1575.00
2019-02-28T11:29:10.145Z,1546.88
2019-02-28T11:30:10.818Z,1507.50
2019-02-28T11:31:11.213Z,1462.50
2019-02-28T11:32:10.079Z,1440.00
2019-02-28T11:33:10.072Z,1496.25
2019-02-28T11:34:11.601Z,1580.62
2019-02-28T11:35:10.104Z,1440.00
2019-02-28T11:36:10.151Z,1383.75
2019-02-28T11:37:10.022Z,1265.62
2019-02-28T11:38:10.259Z,1068.75
2019-02-28T11:39:20.315Z,928.12
2019-02-28T11:40:09.997Z,855.00
2019-02-28T11:41:09.985Z,770.62
2019-02-28T11:42:09.972Z,725.62
2019-02-28T11:43:09.956Z,725.62
2019-02-28T11:44:12.018Z,765.00
2019-02-28T11:45:09.979Z,798.75
2019-02-28T11:46:09.924Z,810.00
2019-02-28T11:47:11.203Z,810.00
2019-02-28T11:48:09.933Z,776.25
2019-02-28T11:49:09.934Z,770.62
2019-02-28T11:50:09.932Z,798.75
2019-02-28T11:51:09.954Z,798.75
2019-02-28T11:52:09.870Z,781.88
2019-02-28T11:53:09.889Z,770.62
2019-02-28T11:54:12.307Z,759.38
2019-02-28T11:55:09.885Z,753.75
2019-02-28T11:56:09.813Z,753.75
2019-02-28T11:57:09.806Z,731.25
2019-02-28T11:58:09.819Z,720.00
2019-02-28T11:59:09.865Z,714.38
2019-02-28T12:00:09.795Z,697.50
2019-02-28T12:01:10.663Z,697.50
2019-02-28T12:02:09.791Z,697.50
2019-02-28T12:03:09.759Z,691.88
2019-02-28T12:04:09.736Z,686.25
2019-02-28T12:05:12.287Z,680.62
2019-02-28T12:06:10.724Z,680.62
2019-02-28T12:07:09.708Z,691.88
2019-02-28T12:08:10.691Z,686.25
2019-02-28T12:09:09.720Z,686.25
2019-02-28T12:10:09.750Z,686.25
2019-02-28T12:11:09.648Z,691.88
2019-02-28T12:12:10.426Z,691.88
2019-02-28T12:13:09.654Z,697.50
2019-02-28T12:14:09.648Z,697.50
2019-02-28T12:15:09.612Z,708.75
2019-02-28T12:16:09.618Z,714.38
2019-02-28T12:17:09.588Z,748.12
2019-02-28T12:18:09.599Z,804.38
2019-02-28T12:19:12.455Z,883.12
2019-02-28T12:20:10.562Z,1006.88
2019-02-28T12:21:09.582Z,1119.38
2019-02-28T12:22:12.108Z,1248.75
2019-02-28T12:23:09.546Z,1299.38
2019-02-28T12:24:09.510Z,1299.38
2019-02-28T12:25:09.494Z,1372.50
2019-02-28T12:26:09.536Z,1372.50
2019-02-28T12:27:09.508Z,1355.62
2019-02-28T12:28:09.465Z,1310.62
2019-02-28T12:29:12.821Z,1276.88
2019-02-28T12:30:09.441Z,1220.62
2019-02-28T12:31:09.452Z,1220.62
2019-02-28T12:32:11.224Z,1220.62
2019-02-28T12:33:09.433Z,1220.62
2019-02-28T12:34:09.402Z,1248.75
2019-02-28T12:35:09.388Z,1265.62
2019-02-28T12:36:11.215Z,1282.50
2019-02-28T12:37:09.367Z,1293.75
2019-02-28T12:38:09.380Z,1310.62
2019-02-28T12:39:09.404Z,1372.50
2019-02-28T12:40:10.335Z,1428.75
2019-02-28T12:41:09.365Z,1440.00
2019-02-28T12:42:09.326Z,1417.50
2019-02-28T12:43:09.700Z,1395.00
2019-02-28T12:44:09.299Z,1350.00
2019-02-28T12:45:09.291Z,1395.00
2019-02-28T12:46:09.366Z,1423.12
2019-02-28T12:47:09.294Z,1383.75
2019-02-28T12:48:09.281Z,1361.25